sensor_id;sensor_type;location;lat;lon;timestamp;P1;durP1;ratioP1;P2;durP2;ratioP2
68074;SDS011;54864;52.002;5.468;2023-02-15T00:00:45;49.08;;;30.10;;
68074;SDS011;54864;52.002;5.468;2023-02-15T00:01:48;45.72;;;30.08;;
68074;SDS011;54864;52.002;5.468;2023-02-15T00:02:49;47.38;;;30.77;;
68074;SDS011;54864;52.002;5.468;2023-02-15T00:03:51;51.17;;;31.80;;
68074;SDS011;54864;52.002;5.468;2023-02-15T00:04:52;50.73;;;33.53;;
68074;SDS011;54864;52.002;5.468;2023-02-15T00:05:56;47.22;;;30.77;;
68074;SDS011;54864;52.002;5.468;2023-02-15T00:06:57;49.13;;;30.85;;
68074;SDS011;54864;52.002;5.468;2023-02-15T00:07:58;47.55;;;30.20;;
68074;SDS011;54864;52.002;5.468;2023-02-15T00:08:59;49.78;;;32.20;;
68074;SDS011;54864;52.002;5.468;2023-02-15T00:10:01;46.40;;;30.75;;
68074;SDS011;54864;52.002;5.468;2023-02-15T00:11:03;50.78;;;31.83;;
68074;SDS011;54864;52.002;5.468;2023-02-15T00:12:06;50.72;;;32.45;;
68074;SDS011;54864;52.002;5.468;2023-02-15T00:13:07;52.70;;;32.65;;
68074;SDS011;54864;52.002;5.468;2023-02-15T00:14:09;54.45;;;32.47;;
68074;SDS011;54864;52.002;5.468;2023-02-15T00:15:11;54.70;;;33.80;;
68074;SDS011;54864;52.002;5.468;2023-02-15T00:16:13;50.40;;;32.10;;
68074;SDS011;54864;52.002;5.468;2023-02-15T00:17:15;51.08;;;32.35;;
68074;SDS011;54864;52.002;5.468;2023-02-15T00:18:16;53.47;;;32.97;;
68074;SDS011;54864;52.002;5.468;2023-02-15T00:19:18;52.75;;;32.70;;
68074;SDS011;54864;52.002;5.468;2023-02-15T00:20:21;49.77;;;32.50;;
68074;SDS011;54864;52.002;5.468;2023-02-15T00:21:25;52.80;;;33.92;;
68074;SDS011;54864;52.002;5.468;2023-02-15T00:22:26;58.53;;;36.28;;
68074;SDS011;54864;52.002;5.468;2023-02-15T00:23:27;58.08;;;36.33;;
68074;SDS011;54864;52.002;5.468;2023-02-15T00:24:31;59.88;;;36.92;;
68074;SDS011;54864;52.002;5.468;2023-02-15T00:25:32;64.53;;;38.13;;
68074;SDS011;54864;52.002;5.468;2023-02-15T00:26:34;57.92;;;35.40;;
68074;SDS011;54864;52.002;5.468;2023-02-15T00:27:35;62.25;;;35.97;;
68074;SDS011;54864;52.002;5.468;2023-02-15T00:28:39;54.95;;;36.15;;
68074;SDS011;54864;52.002;5.468;2023-02-15T00:29:39;57.83;;;37.35;;
68074;SDS011;54864;52.002;5.468;2023-02-15T00:30:41;60.50;;;35.70;;
68074;SDS011;54864;52.002;5.468;2023-02-15T00:31:42;60.45;;;36.33;;
68074;SDS011;54864;52.002;5.468;2023-02-15T00:32:45;61.25;;;37.00;;
68074;SDS011;54864;52.002;5.468;2023-02-15T00:33:47;59.05;;;36.58;;
68074;SDS011;54864;52.002;5.468;2023-02-15T00:34:49;62.40;;;37.58;;
68074;SDS011;54864;52.002;5.468;2023-02-15T00:35:55;63.65;;;37.40;;
68074;SDS011;54864;52.002;5.468;2023-02-15T00:36:59;58.97;;;37.17;;
68074;SDS011;54864;52.002;5.468;2023-02-15T00:38:00;61.20;;;38.88;;
68074;SDS011;54864;52.002;5.468;2023-02-15T00:39:02;62.00;;;38.10;;
68074;SDS011;54864;52.002;5.468;2023-02-15T00:40:05;59.25;;;35.97;;
68074;SDS011;54864;52.002;5.468;2023-02-15T00:41:08;59.72;;;37.42;;
68074;SDS011;54864;52.002;5.468;2023-02-15T00:42:09;61.47;;;37.80;;
68074;SDS011;54864;52.002;5.468;2023-02-15T00:43:10;59.33;;;36.00;;
68074;SDS011;54864;52.002;5.468;2023-02-15T00:44:11;57.40;;;36.33;;
68074;SDS011;54864;52.002;5.468;2023-02-15T00:45:15;56.10;;;36.92;;
68074;SDS011;54864;52.002;5.468;2023-02-15T00:46:16;60.83;;;38.50;;
68074;SDS011;54864;52.002;5.468;2023-02-15T00:47:18;60.38;;;37.25;;
68074;SDS011;54864;52.002;5.468;2023-02-15T00:48:20;59.50;;;37.90;;
68074;SDS011;54864;52.002;5.468;2023-02-15T00:49:22;59.80;;;37.15;;
68074;SDS011;54864;52.002;5.468;2023-02-15T00:50:23;59.03;;;37.13;;
68074;SDS011;54864;52.002;5.468;2023-02-15T00:51:24;62.47;;;37.47;;
68074;SDS011;54864;52.002;5.468;2023-02-15T00:52:25;63.08;;;39.45;;
68074;SDS011;54864;52.002;5.468;2023-02-15T00:53:27;58.55;;;37.28;;
68074;SDS011;54864;52.002;5.468;2023-02-15T00:54:32;63.47;;;38.60;;
68074;SDS011;54864;52.002;5.468;2023-02-15T00:55:34;61.40;;;38.97;;
68074;SDS011;54864;52.002;5.468;2023-02-15T00:56:35;60.75;;;38.30;;
68074;SDS011;54864;52.002;5.468;2023-02-15T00:57:37;65.53;;;39.10;;
68074;SDS011;54864;52.002;5.468;2023-02-15T00:58:37;62.63;;;37.28;;
68074;SDS011;54864;52.002;5.468;2023-02-15T00:59:39;59.67;;;38.25;;
68074;SDS011;54864;52.002;5.468;2023-02-15T01:00:41;60.05;;;37.85;;
68074;SDS011;54864;52.002;5.468;2023-02-15T01:01:45;60.50;;;37.78;;
68074;SDS011;54864;52.002;5.468;2023-02-15T01:02:45;61.57;;;37.77;;
68074;SDS011;54864;52.002;5.468;2023-02-15T01:03:48;62.13;;;38.40;;
68074;SDS011;54864;52.002;5.468;2023-02-15T01:04:49;61.38;;;37.17;;
68074;SDS011;54864;52.002;5.468;2023-02-15T01:05:51;58.50;;;37.10;;
68074;SDS011;54864;52.002;5.468;2023-02-15T01:06:52;57.50;;;36.22;;
68074;SDS011;54864;52.002;5.468;2023-02-15T01:07:53;57.65;;;36.58;;
68074;SDS011;54864;52.002;5.468;2023-02-15T01:08:54;57.83;;;37.10;;
68074;SDS011;54864;52.002;5.468;2023-02-15T01:09:56;51.83;;;34.30;;
68074;SDS011;54864;52.002;5.468;2023-02-15T01:10:56;61.57;;;35.83;;
68074;SDS011;54864;52.002;5.468;2023-02-15T01:12:03;58.88;;;36.30;;
68074;SDS011;54864;52.002;5.468;2023-02-15T01:13:04;54.07;;;35.77;;
68074;SDS011;54864;52.002;5.468;2023-02-15T01:14:06;55.90;;;36.03;;
68074;SDS011;54864;52.002;5.468;2023-02-15T01:15:07;58.27;;;36.03;;
68074;SDS011;54864;52.002;5.468;2023-02-15T01:16:09;57.03;;;34.92;;
68074;SDS011;54864;52.002;5.468;2023-02-15T01:17:10;57.90;;;35.97;;
68074;SDS011;54864;52.002;5.468;2023-02-15T01:18:12;55.20;;;35.90;;
68074;SDS011;54864;52.002;5.468;2023-02-15T01:19:14;58.30;;;33.88;;
68074;SDS011;54864;52.002;5.468;2023-02-15T01:20:15;54.95;;;34.08;;
68074;SDS011;54864;52.002;5.468;2023-02-15T01:21:18;54.92;;;34.92;;
68074;SDS011;54864;52.002;5.468;2023-02-15T01:22:21;53.00;;;33.88;;
68074;SDS011;54864;52.002;5.468;2023-02-15T01:23:22;54.40;;;33.47;;
68074;SDS011;54864;52.002;5.468;2023-02-15T01:24:23;50.67;;;33.47;;
68074;SDS011;54864;52.002;5.468;2023-02-15T01:25:24;59.72;;;35.08;;
68074;SDS011;54864;52.002;5.468;2023-02-15T01:26:26;53.65;;;33.10;;
68074;SDS011;54864;52.002;5.468;2023-02-15T01:27:27;55.40;;;34.97;;
68074;SDS011;54864;52.002;5.468;2023-02-15T01:28:30;55.13;;;34.67;;
68074;SDS011;54864;52.002;5.468;2023-02-15T01:29:31;51.20;;;33.83;;
68074;SDS011;54864;52.002;5.468;2023-02-15T01:30:33;53.95;;;34.38;;
68074;SDS011;54864;52.002;5.468;2023-02-15T01:31:34;56.47;;;35.30;;
68074;SDS011;54864;52.002;5.468;2023-02-15T01:32:35;54.88;;;34.25;;
68074;SDS011;54864;52.002;5.468;2023-02-15T01:33:36;57.93;;;35.67;;
68074;SDS011;54864;52.002;5.468;2023-02-15T01:34:39;55.25;;;34.58;;
68074;SDS011;54864;52.002;5.468;2023-02-15T01:35:40;53.58;;;34.78;;
68074;SDS011;54864;52.002;5.468;2023-02-15T01:36:42;55.70;;;34.25;;
68074;SDS011;54864;52.002;5.468;2023-02-15T01:37:42;52.85;;;34.45;;
68074;SDS011;54864;52.002;5.468;2023-02-15T01:38:44;56.42;;;34.83;;
68074;SDS011;54864;52.002;5.468;2023-02-15T01:39:45;55.72;;;35.25;;
68074;SDS011;54864;52.002;5.468;2023-02-15T01:40:50;51.88;;;33.55;;
68074;SDS011;54864;52.002;5.468;2023-02-15T01:41:51;51.17;;;33.07;;
68074;SDS011;54864;52.002;5.468;2023-02-15T01:42:53;49.03;;;32.20;;
68074;SDS011;54864;52.002;5.468;2023-02-15T01:43:54;52.90;;;33.67;;
68074;SDS011;54864;52.002;5.468;2023-02-15T01:44:58;55.08;;;33.42;;
68074;SDS011;54864;52.002;5.468;2023-02-15T01:46:00;51.05;;;32.65;;
68074;SDS011;54864;52.002;5.468;2023-02-15T01:47:01;54.72;;;33.83;;
68074;SDS011;54864;52.002;5.468;2023-02-15T01:48:03;54.20;;;35.13;;
68074;SDS011;54864;52.002;5.468;2023-02-15T01:49:08;55.45;;;34.20;;
68074;SDS011;54864;52.002;5.468;2023-02-15T01:50:13;54.17;;;34.83;;
68074;SDS011;54864;52.002;5.468;2023-02-15T01:51:20;54.22;;;34.45;;
68074;SDS011;54864;52.002;5.468;2023-02-15T01:52:23;54.15;;;33.83;;
68074;SDS011;54864;52.002;5.468;2023-02-15T01:53:27;54.00;;;33.67;;
68074;SDS011;54864;52.002;5.468;2023-02-15T01:54:32;59.10;;;35.13;;
68074;SDS011;54864;52.002;5.468;2023-02-15T01:55:38;55.40;;;35.25;;
68074;SDS011;54864;52.002;5.468;2023-02-15T01:56:41;53.78;;;34.25;;
68074;SDS011;54864;52.002;5.468;2023-02-15T01:57:43;53.10;;;34.47;;
68074;SDS011;54864;52.002;5.468;2023-02-15T01:58:46;53.53;;;31.38;;
68074;SDS011;54864;52.002;5.468;2023-02-15T01:59:50;58.10;;;34.55;;
68074;SDS011;54864;52.002;5.468;2023-02-15T02:00:54;50.85;;;32.53;;
68074;SDS011;54864;52.002;5.468;2023-02-15T02:01:58;54.40;;;34.35;;
68074;SDS011;54864;52.002;5.468;2023-02-15T02:03:00;56.80;;;34.33;;
68074;SDS011;54864;52.002;5.468;2023-02-15T02:04:05;53.05;;;34.38;;
68074;SDS011;54864;52.002;5.468;2023-02-15T02:05:15;54.55;;;33.75;;
68074;SDS011;54864;52.002;5.468;2023-02-15T02:06:16;51.58;;;32.83;;
68074;SDS011;54864;52.002;5.468;2023-02-15T02:07:20;54.10;;;33.08;;
68074;SDS011;54864;52.002;5.468;2023-02-15T02:08:25;49.22;;;32.78;;
68074;SDS011;54864;52.002;5.468;2023-02-15T02:09:27;53.47;;;32.90;;
68074;SDS011;54864;52.002;5.468;2023-02-15T02:10:30;52.70;;;33.38;;
68074;SDS011;54864;52.002;5.468;2023-02-15T02:11:31;55.33;;;33.53;;
68074;SDS011;54864;52.002;5.468;2023-02-15T02:12:34;54.92;;;33.08;;
68074;SDS011;54864;52.002;5.468;2023-02-15T02:13:37;56.90;;;33.47;;
68074;SDS011;54864;52.002;5.468;2023-02-15T02:14:39;49.90;;;32.20;;
68074;SDS011;54864;52.002;5.468;2023-02-15T02:15:43;52.72;;;33.78;;
68074;SDS011;54864;52.002;5.468;2023-02-15T02:16:51;51.25;;;32.45;;
68074;SDS011;54864;52.002;5.468;2023-02-15T02:18:03;48.95;;;32.17;;
68074;SDS011;54864;52.002;5.468;2023-02-15T02:19:37;49.60;;;32.08;;
68074;SDS011;54864;52.002;5.468;2023-02-15T02:21:16;51.58;;;33.28;;
68074;SDS011;54864;52.002;5.468;2023-02-15T02:22:46;50.88;;;32.40;;
68074;SDS011;54864;52.002;5.468;2023-02-15T02:24:16;50.10;;;32.92;;
68074;SDS011;54864;52.002;5.468;2023-02-15T02:27:34;51.05;;;32.38;;
68074;SDS011;54864;52.002;5.468;2023-02-15T02:30:39;53.93;;;34.30;;
68074;SDS011;54864;52.002;5.468;2023-02-15T02:32:12;52.40;;;32.42;;
68074;SDS011;54864;52.002;5.468;2023-02-15T02:33:33;55.17;;;33.72;;
68074;SDS011;54864;52.002;5.468;2023-02-15T02:34:46;51.40;;;33.17;;
68074;SDS011;54864;52.002;5.468;2023-02-15T02:35:57;51.75;;;33.08;;
68074;SDS011;54864;52.002;5.468;2023-02-15T02:37:08;54.42;;;33.88;;
68074;SDS011;54864;52.002;5.468;2023-02-15T02:38:19;53.17;;;35.05;;
68074;SDS011;54864;52.002;5.468;2023-02-15T02:39:30;53.97;;;34.55;;
68074;SDS011;54864;52.002;5.468;2023-02-15T02:40:40;58.65;;;36.15;;
68074;SDS011;54864;52.002;5.468;2023-02-15T02:41:49;59.13;;;35.10;;
68074;SDS011;54864;52.002;5.468;2023-02-15T02:42:59;55.50;;;34.28;;
68074;SDS011;54864;52.002;5.468;2023-02-15T02:44:04;55.47;;;33.40;;
68074;SDS011;54864;52.002;5.468;2023-02-15T02:45:15;55.80;;;33.72;;
68074;SDS011;54864;52.002;5.468;2023-02-15T02:46:24;57.67;;;34.65;;
68074;SDS011;54864;52.002;5.468;2023-02-15T02:47:32;53.03;;;32.65;;
68074;SDS011;54864;52.002;5.468;2023-02-15T02:48:39;53.10;;;33.50;;
68074;SDS011;54864;52.002;5.468;2023-02-15T02:49:41;53.53;;;34.08;;
68074;SDS011;54864;52.002;5.468;2023-02-15T02:50:44;56.60;;;33.78;;
68074;SDS011;54864;52.002;5.468;2023-02-15T02:51:44;61.10;;;35.70;;
68074;SDS011;54864;52.002;5.468;2023-02-15T02:52:47;60.05;;;35.05;;
68074;SDS011;54864;52.002;5.468;2023-02-15T02:53:50;49.50;;;33.80;;
68074;SDS011;54864;52.002;5.468;2023-02-15T02:54:55;56.05;;;34.72;;
68074;SDS011;54864;52.002;5.468;2023-02-15T02:55:57;53.88;;;33.22;;
68074;SDS011;54864;52.002;5.468;2023-02-15T02:57:03;54.47;;;33.80;;
68074;SDS011;54864;52.002;5.468;2023-02-15T02:58:09;56.42;;;34.50;;
68074;SDS011;54864;52.002;5.468;2023-02-15T02:59:17;54.10;;;32.90;;
68074;SDS011;54864;52.002;5.468;2023-02-15T03:00:21;55.50;;;33.05;;
68074;SDS011;54864;52.002;5.468;2023-02-15T03:01:27;51.22;;;32.85;;
68074;SDS011;54864;52.002;5.468;2023-02-15T03:02:33;50.35;;;32.05;;
68074;SDS011;54864;52.002;5.468;2023-02-15T03:03:43;49.15;;;32.75;;
68074;SDS011;54864;52.002;5.468;2023-02-15T03:04:47;47.55;;;31.23;;
68074;SDS011;54864;52.002;5.468;2023-02-15T03:05:58;51.45;;;31.73;;
68074;SDS011;54864;52.002;5.468;2023-02-15T03:07:02;51.55;;;31.95;;
68074;SDS011;54864;52.002;5.468;2023-02-15T03:08:07;50.85;;;32.72;;
68074;SDS011;54864;52.002;5.468;2023-02-15T03:09:10;51.00;;;32.67;;
68074;SDS011;54864;52.002;5.468;2023-02-15T03:10:15;49.97;;;31.90;;
68074;SDS011;54864;52.002;5.468;2023-02-15T03:11:18;50.60;;;31.65;;
68074;SDS011;54864;52.002;5.468;2023-02-15T03:12:20;53.63;;;32.08;;
68074;SDS011;54864;52.002;5.468;2023-02-15T03:13:23;50.50;;;31.33;;
68074;SDS011;54864;52.002;5.468;2023-02-15T03:14:25;50.13;;;31.67;;
68074;SDS011;54864;52.002;5.468;2023-02-15T03:15:28;48.75;;;31.02;;
68074;SDS011;54864;52.002;5.468;2023-02-15T03:16:52;51.70;;;32.15;;
68074;SDS011;54864;52.002;5.468;2023-02-15T03:17:55;53.90;;;33.42;;
68074;SDS011;54864;52.002;5.468;2023-02-15T03:19:01;52.65;;;33.17;;
68074;SDS011;54864;52.002;5.468;2023-02-15T03:20:06;52.80;;;34.05;;
68074;SDS011;54864;52.002;5.468;2023-02-15T03:21:12;48.67;;;31.65;;
68074;SDS011;54864;52.002;5.468;2023-02-15T03:22:23;48.47;;;31.92;;
68074;SDS011;54864;52.002;5.468;2023-02-15T03:23:35;46.72;;;31.15;;
68074;SDS011;54864;52.002;5.468;2023-02-15T03:24:39;50.55;;;33.05;;
68074;SDS011;54864;52.002;5.468;2023-02-15T03:25:44;48.40;;;30.83;;
68074;SDS011;54864;52.002;5.468;2023-02-15T03:26:50;50.70;;;32.10;;
68074;SDS011;54864;52.002;5.468;2023-02-15T03:27:53;52.95;;;31.88;;
68074;SDS011;54864;52.002;5.468;2023-02-15T03:28:56;52.90;;;33.07;;
68074;SDS011;54864;52.002;5.468;2023-02-15T03:30:01;51.92;;;32.60;;
68074;SDS011;54864;52.002;5.468;2023-02-15T03:31:04;51.83;;;32.03;;
68074;SDS011;54864;52.002;5.468;2023-02-15T03:32:08;49.45;;;31.23;;
68074;SDS011;54864;52.002;5.468;2023-02-15T03:33:14;49.85;;;30.95;;
68074;SDS011;54864;52.002;5.468;2023-02-15T03:34:18;48.72;;;30.88;;
68074;SDS011;54864;52.002;5.468;2023-02-15T03:35:19;51.13;;;32.22;;
68074;SDS011;54864;52.002;5.468;2023-02-15T03:36:28;48.10;;;31.58;;
68074;SDS011;54864;52.002;5.468;2023-02-15T03:37:37;48.13;;;31.48;;
68074;SDS011;54864;52.002;5.468;2023-02-15T03:38:43;49.40;;;31.55;;
68074;SDS011;54864;52.002;5.468;2023-02-15T03:39:51;47.47;;;30.47;;
68074;SDS011;54864;52.002;5.468;2023-02-15T03:40:56;49.23;;;30.23;;
68074;SDS011;54864;52.002;5.468;2023-02-15T03:42:13;50.03;;;31.17;;
68074;SDS011;54864;52.002;5.468;2023-02-15T03:43:19;51.63;;;31.30;;
68074;SDS011;54864;52.002;5.468;2023-02-15T03:44:26;48.72;;;30.65;;
68074;SDS011;54864;52.002;5.468;2023-02-15T03:45:30;48.13;;;30.65;;
68074;SDS011;54864;52.002;5.468;2023-02-15T03:46:34;45.30;;;29.73;;
68074;SDS011;54864;52.002;5.468;2023-02-15T03:47:46;46.22;;;30.00;;
68074;SDS011;54864;52.002;5.468;2023-02-15T03:48:51;48.30;;;30.05;;
68074;SDS011;54864;52.002;5.468;2023-02-15T03:49:57;43.90;;;30.17;;
68074;SDS011;54864;52.002;5.468;2023-02-15T03:51:02;48.47;;;30.70;;
68074;SDS011;54864;52.002;5.468;2023-02-15T03:52:26;51.95;;;32.03;;
68074;SDS011;54864;52.002;5.468;2023-02-15T03:53:30;45.65;;;29.85;;
68074;SDS011;54864;52.002;5.468;2023-02-15T03:54:32;49.83;;;30.95;;
68074;SDS011;54864;52.002;5.468;2023-02-15T03:55:46;47.45;;;30.63;;
68074;SDS011;54864;52.002;5.468;2023-02-15T03:56:48;45.05;;;29.50;;
68074;SDS011;54864;52.002;5.468;2023-02-15T03:58:10;49.25;;;29.25;;
68074;SDS011;54864;52.002;5.468;2023-02-15T03:59:29;42.95;;;29.02;;
68074;SDS011;54864;52.002;5.468;2023-02-15T04:00:49;49.65;;;31.00;;
68074;SDS011;54864;52.002;5.468;2023-02-15T04:02:17;45.17;;;29.88;;
68074;SDS011;54864;52.002;5.468;2023-02-15T04:03:26;45.50;;;30.27;;
68074;SDS011;54864;52.002;5.468;2023-02-15T04:04:34;46.00;;;29.90;;
68074;SDS011;54864;52.002;5.468;2023-02-15T04:05:39;46.05;;;29.52;;
68074;SDS011;54864;52.002;5.468;2023-02-15T04:06:40;48.10;;;29.63;;
68074;SDS011;54864;52.002;5.468;2023-02-15T04:07:41;46.05;;;29.67;;
68074;SDS011;54864;52.002;5.468;2023-02-15T04:08:43;44.95;;;29.17;;
68074;SDS011;54864;52.002;5.468;2023-02-15T04:10:03;50.45;;;30.35;;
68074;SDS011;54864;52.002;5.468;2023-02-15T04:11:25;45.55;;;30.60;;
68074;SDS011;54864;52.002;5.468;2023-02-15T04:12:26;47.90;;;31.23;;
68074;SDS011;54864;52.002;5.468;2023-02-15T04:13:29;45.35;;;30.05;;
68074;SDS011;54864;52.002;5.468;2023-02-15T04:14:32;47.53;;;29.90;;
68074;SDS011;54864;52.002;5.468;2023-02-15T04:15:53;48.47;;;30.55;;
68074;SDS011;54864;52.002;5.468;2023-02-15T04:17:04;53.40;;;31.10;;
68074;SDS011;54864;52.002;5.468;2023-02-15T04:18:06;50.08;;;30.70;;
68074;SDS011;54864;52.002;5.468;2023-02-15T04:19:07;48.45;;;30.25;;
68074;SDS011;54864;52.002;5.468;2023-02-15T04:20:27;50.35;;;31.42;;
68074;SDS011;54864;52.002;5.468;2023-02-15T04:21:47;44.97;;;29.25;;
68074;SDS011;54864;52.002;5.468;2023-02-15T04:23:07;48.50;;;30.73;;
68074;SDS011;54864;52.002;5.468;2023-02-15T04:24:26;44.63;;;28.80;;
68074;SDS011;54864;52.002;5.468;2023-02-15T04:25:46;50.65;;;30.83;;
68074;SDS011;54864;52.002;5.468;2023-02-15T04:26:47;45.90;;;29.58;;
68074;SDS011;54864;52.002;5.468;2023-02-15T04:27:49;48.83;;;31.55;;
68074;SDS011;54864;52.002;5.468;2023-02-15T04:28:52;50.88;;;31.40;;
68074;SDS011;54864;52.002;5.468;2023-02-15T04:29:53;50.80;;;32.53;;
68074;SDS011;54864;52.002;5.468;2023-02-15T04:30:54;46.10;;;30.13;;
68074;SDS011;54864;52.002;5.468;2023-02-15T04:31:56;46.67;;;30.53;;
68074;SDS011;54864;52.002;5.468;2023-02-15T04:33:01;50.88;;;32.00;;
68074;SDS011;54864;52.002;5.468;2023-02-15T04:34:01;47.80;;;30.00;;
68074;SDS011;54864;52.002;5.468;2023-02-15T04:35:04;47.20;;;29.58;;
68074;SDS011;54864;52.002;5.468;2023-02-15T04:36:05;49.30;;;31.80;;
68074;SDS011;54864;52.002;5.468;2023-02-15T04:37:09;48.40;;;31.05;;
68074;SDS011;54864;52.002;5.468;2023-02-15T04:38:11;46.65;;;30.38;;
68074;SDS011;54864;52.002;5.468;2023-02-15T04:39:13;51.65;;;31.58;;
68074;SDS011;54864;52.002;5.468;2023-02-15T04:40:15;46.97;;;30.30;;
68074;SDS011;54864;52.002;5.468;2023-02-15T04:41:17;50.67;;;32.03;;
68074;SDS011;54864;52.002;5.468;2023-02-15T04:42:18;45.60;;;29.52;;
68074;SDS011;54864;52.002;5.468;2023-02-15T04:43:20;46.95;;;31.00;;
68074;SDS011;54864;52.002;5.468;2023-02-15T04:44:20;51.10;;;31.03;;
68074;SDS011;54864;52.002;5.468;2023-02-15T04:45:22;48.95;;;30.77;;
68074;SDS011;54864;52.002;5.468;2023-02-15T04:46:23;49.10;;;31.30;;
68074;SDS011;54864;52.002;5.468;2023-02-15T04:47:24;48.53;;;31.27;;
68074;SDS011;54864;52.002;5.468;2023-02-15T04:48:25;50.73;;;31.87;;
68074;SDS011;54864;52.002;5.468;2023-02-15T04:49:27;46.53;;;30.30;;
68074;SDS011;54864;52.002;5.468;2023-02-15T04:50:28;49.63;;;31.42;;
68074;SDS011;54864;52.002;5.468;2023-02-15T04:51:29;48.35;;;28.88;;
68074;SDS011;54864;52.002;5.468;2023-02-15T04:52:34;48.13;;;30.23;;
68074;SDS011;54864;52.002;5.468;2023-02-15T04:53:36;50.10;;;30.35;;
68074;SDS011;54864;52.002;5.468;2023-02-15T04:54:36;46.88;;;29.08;;
68074;SDS011;54864;52.002;5.468;2023-02-15T04:55:38;51.78;;;30.85;;
68074;SDS011;54864;52.002;5.468;2023-02-15T04:56:39;46.38;;;30.50;;
68074;SDS011;54864;52.002;5.468;2023-02-15T04:57:41;49.17;;;29.95;;
68074;SDS011;54864;52.002;5.468;2023-02-15T04:58:41;46.78;;;30.15;;
68074;SDS011;54864;52.002;5.468;2023-02-15T04:59:43;48.03;;;31.50;;
68074;SDS011;54864;52.002;5.468;2023-02-15T05:00:43;46.57;;;29.97;;
68074;SDS011;54864;52.002;5.468;2023-02-15T05:01:45;46.45;;;30.13;;
68074;SDS011;54864;52.002;5.468;2023-02-15T05:02:46;48.07;;;31.10;;
68074;SDS011;54864;52.002;5.468;2023-02-15T05:03:48;47.13;;;29.65;;
68074;SDS011;54864;52.002;5.468;2023-02-15T05:04:49;47.90;;;31.17;;
68074;SDS011;54864;52.002;5.468;2023-02-15T05:05:50;46.92;;;29.00;;
68074;SDS011;54864;52.002;5.468;2023-02-15T05:06:51;47.23;;;30.60;;
68074;SDS011;54864;52.002;5.468;2023-02-15T05:07:54;50.17;;;31.60;;
68074;SDS011;54864;52.002;5.468;2023-02-15T05:08:55;55.87;;;30.77;;
68074;SDS011;54864;52.002;5.468;2023-02-15T05:09:58;48.67;;;30.90;;
68074;SDS011;54864;52.002;5.468;2023-02-15T05:10:59;44.78;;;29.65;;
68074;SDS011;54864;52.002;5.468;2023-02-15T05:12:01;48.08;;;29.92;;
68074;SDS011;54864;52.002;5.468;2023-02-15T05:13:01;48.20;;;30.08;;
68074;SDS011;54864;52.002;5.468;2023-02-15T05:14:03;44.70;;;30.30;;
68074;SDS011;54864;52.002;5.468;2023-02-15T05:15:04;43.53;;;29.30;;
68074;SDS011;54864;52.002;5.468;2023-02-15T05:16:06;48.92;;;30.30;;
68074;SDS011;54864;52.002;5.468;2023-02-15T05:17:07;45.85;;;30.67;;
68074;SDS011;54864;52.002;5.468;2023-02-15T05:18:08;51.13;;;30.88;;
68074;SDS011;54864;52.002;5.468;2023-02-15T05:19:09;46.30;;;29.90;;
68074;SDS011;54864;52.002;5.468;2023-02-15T05:20:11;46.22;;;29.83;;
68074;SDS011;54864;52.002;5.468;2023-02-15T05:21:12;50.40;;;31.88;;
68074;SDS011;54864;52.002;5.468;2023-02-15T05:22:16;47.05;;;29.88;;
68074;SDS011;54864;52.002;5.468;2023-02-15T05:23:18;47.90;;;30.70;;
68074;SDS011;54864;52.002;5.468;2023-02-15T05:24:20;52.05;;;29.80;;
68074;SDS011;54864;52.002;5.468;2023-02-15T05:25:39;47.83;;;30.40;;
68074;SDS011;54864;52.002;5.468;2023-02-15T05:26:58;47.45;;;29.73;;
68074;SDS011;54864;52.002;5.468;2023-02-15T05:28:18;45.47;;;29.30;;
68074;SDS011;54864;52.002;5.468;2023-02-15T05:29:22;50.63;;;29.92;;
68074;SDS011;54864;52.002;5.468;2023-02-15T05:30:23;44.43;;;29.77;;
68074;SDS011;54864;52.002;5.468;2023-02-15T05:31:25;51.45;;;31.50;;
68074;SDS011;54864;52.002;5.468;2023-02-15T05:32:25;47.42;;;30.50;;
68074;SDS011;54864;52.002;5.468;2023-02-15T05:33:27;47.65;;;29.90;;
68074;SDS011;54864;52.002;5.468;2023-02-15T05:34:29;47.28;;;31.02;;
68074;SDS011;54864;52.002;5.468;2023-02-15T05:35:30;48.72;;;30.63;;
68074;SDS011;54864;52.002;5.468;2023-02-15T05:36:32;47.55;;;29.30;;
68074;SDS011;54864;52.002;5.468;2023-02-15T05:37:35;50.00;;;30.40;;
68074;SDS011;54864;52.002;5.468;2023-02-15T05:38:39;49.03;;;30.80;;
68074;SDS011;54864;52.002;5.468;2023-02-15T05:39:40;50.90;;;31.95;;
68074;SDS011;54864;52.002;5.468;2023-02-15T05:40:41;48.53;;;31.33;;
68074;SDS011;54864;52.002;5.468;2023-02-15T05:41:43;50.03;;;31.00;;
68074;SDS011;54864;52.002;5.468;2023-02-15T05:42:43;48.78;;;30.52;;
68074;SDS011;54864;52.002;5.468;2023-02-15T05:43:46;50.05;;;31.77;;
68074;SDS011;54864;52.002;5.468;2023-02-15T05:44:46;53.92;;;32.25;;
68074;SDS011;54864;52.002;5.468;2023-02-15T05:45:54;51.78;;;31.92;;
68074;SDS011;54864;52.002;5.468;2023-02-15T05:46:55;49.47;;;30.85;;
68074;SDS011;54864;52.002;5.468;2023-02-15T05:47:57;49.97;;;30.25;;
68074;SDS011;54864;52.002;5.468;2023-02-15T05:48:59;52.30;;;30.98;;
68074;SDS011;54864;52.002;5.468;2023-02-15T05:49:59;46.33;;;31.35;;
68074;SDS011;54864;52.002;5.468;2023-02-15T05:51:02;51.13;;;32.45;;
68074;SDS011;54864;52.002;5.468;2023-02-15T05:52:03;50.70;;;31.25;;
68074;SDS011;54864;52.002;5.468;2023-02-15T05:53:06;52.20;;;32.00;;
68074;SDS011;54864;52.002;5.468;2023-02-15T05:54:08;47.92;;;31.70;;
68074;SDS011;54864;52.002;5.468;2023-02-15T05:55:10;50.38;;;31.58;;
68074;SDS011;54864;52.002;5.468;2023-02-15T05:56:13;48.95;;;30.60;;
68074;SDS011;54864;52.002;5.468;2023-02-15T05:57:14;52.90;;;31.77;;
68074;SDS011;54864;52.002;5.468;2023-02-15T05:58:16;48.90;;;30.95;;
68074;SDS011;54864;52.002;5.468;2023-02-15T05:59:17;48.55;;;30.63;;
68074;SDS011;54864;52.002;5.468;2023-02-15T06:00:19;49.65;;;31.73;;
68074;SDS011;54864;52.002;5.468;2023-02-15T06:01:20;49.40;;;31.23;;
68074;SDS011;54864;52.002;5.468;2023-02-15T06:02:23;46.72;;;29.52;;
68074;SDS011;54864;52.002;5.468;2023-02-15T06:03:23;48.50;;;30.37;;
68074;SDS011;54864;52.002;5.468;2023-02-15T06:04:28;49.92;;;30.27;;
68074;SDS011;54864;52.002;5.468;2023-02-15T06:05:29;49.45;;;30.77;;
68074;SDS011;54864;52.002;5.468;2023-02-15T06:06:30;51.03;;;30.77;;
68074;SDS011;54864;52.002;5.468;2023-02-15T06:07:31;49.20;;;31.00;;
68074;SDS011;54864;52.002;5.468;2023-02-15T06:08:33;51.15;;;31.48;;
68074;SDS011;54864;52.002;5.468;2023-02-15T06:09:36;52.65;;;31.30;;
68074;SDS011;54864;52.002;5.468;2023-02-15T06:10:38;51.17;;;33.03;;
68074;SDS011;54864;52.002;5.468;2023-02-15T06:11:40;54.40;;;32.03;;
68074;SDS011;54864;52.002;5.468;2023-02-15T06:12:41;50.65;;;32.47;;
68074;SDS011;54864;52.002;5.468;2023-02-15T06:13:44;47.28;;;31.08;;
68074;SDS011;54864;52.002;5.468;2023-02-15T06:14:45;52.97;;;31.92;;
68074;SDS011;54864;52.002;5.468;2023-02-15T06:15:46;53.63;;;32.30;;
68074;SDS011;54864;52.002;5.468;2023-02-15T06:16:48;56.65;;;32.45;;
68074;SDS011;54864;52.002;5.468;2023-02-15T06:17:51;51.42;;;31.92;;
68074;SDS011;54864;52.002;5.468;2023-02-15T06:18:56;50.88;;;32.85;;
68074;SDS011;54864;52.002;5.468;2023-02-15T06:19:56;52.37;;;31.80;;
68074;SDS011;54864;52.002;5.468;2023-02-15T06:20:58;53.17;;;32.05;;